Time;durP1;ratioP1;P1;durP2;ratioP2;P2;SDS_P1;SDS_P2;PMS_P1;PMS_P2;Temp;Humidity;BMP_temperature;BMP_pressure;BME280_temperature;BME280_humidity;BME280_pressure;Samples;Min_cycle;Max_cycle;Signal;HPM_P1;HPM_P2
2023/04/22 00:01:26;;;;;;;;;;;;;;;12.81;74.96;100919.50;5001529;28;2064;-74
2023/04/22 00:03:52;;;;;;;;;;;;;;;12.79;74.79;100921.59;5003334;28;2307;-75
2023/04/22 00:06:19;;;;;;;;;;;;;;;12.79;74.54;100918.06;5002574;28;1976;-75
2023/04/22 00:08:45;;;;;;;;;;;;;;;12.77;74.80;100914.78;5005232;28;956;-75
2023/04/22 00:11:12;;;;;;;;;;;;;;;12.77;74.60;100912.06;5003358;28;2112;-75
2023/04/22 00:13:38;;;;;;;;;;;;;;;12.76;74.58;100907.69;5003548;28;2083;-74
2023/04/22 00:16:05;;;;;;;;;;;;;;;12.74;74.72;100905.25;5003660;28;2013;-74
2023/04/22 00:18:32;;;;;;;;;;;;;;;12.72;74.85;100899.22;5004317;28;1981;-74
2023/04/22 00:20:58;;;;;;;;;;;;;;;12.71;74.67;100903.81;5000951;28;2146;-74
2023/04/22 00:23:25;;;;;;;;;;;;;;;12.70;74.87;100895.91;5004103;28;1522;-75
2023/04/22 00:25:51;;;;;;;;;;;;;;;12.68;74.82;100893.44;5001583;28;2024;-74
2023/04/22 00:28:18;;;;;;;;;;;;;;;12.68;74.63;100892.63;5001476;28;2338;-74
2023/04/22 00:30:45;;;;;;;;;;;;;;;12.65;74.62;100891.19;5001967;28;1567;-74
2023/04/22 00:33:11;;;;;;;;;;;;;;;12.64;74.53;100884.13;4999024;28;5037;-74
2023/04/22 00:35:38;;;;;;;;;;;;;;;12.64;74.77;100889.53;5004131;28;4903;-74
2023/04/22 00:38:04;;;;;;;;;;;;;;;12.63;74.65;100889.78;5003005;28;4080;-74
2023/04/22 00:40:31;;;;;;;;;;;;;;;12.61;74.66;100881.06;5002177;28;2066;-74
2023/04/22 00:42:57;;;;;;;;;;;;;;;12.60;74.67;100887.53;5003329;28;1051;-75
2023/04/22 00:45:24;;;;;;;;;;;;;;;12.59;74.64;100877.75;5003803;28;1650;-76
2023/04/22 00:47:50;;;;;;;;;;;;;;;12.57;74.68;100875.28;5003397;28;2062;-74
2023/04/22 00:50:17;;;;;;;;;;;;;;;12.55;74.61;100871.97;5004006;28;3982;-74
2023/04/22 00:52:43;;;;;;;;;;;;;;;12.55;74.55;100874.66;5002306;28;2057;-74
2023/04/22 00:55:10;;;;;;;;;;;;;;;12.53;74.59;100871.38;5001385;28;2173;-75
2023/04/22 00:57:36;;;;;;;;;;;;;;;12.52;74.64;100872.41;5004084;28;1038;-74
2023/04/22 01:00:03;;;;;;;;;;;;;;;12.50;74.45;100871.84;5002314;28;1502;-74
2023/04/22 01:02:30;;;;;;;;;;;;;;;12.48;74.52;100872.03;5004237;28;2075;-74
2023/04/22 01:04:56;;;;;;;;;;;;;;;12.48;74.50;100863.13;5002581;28;1954;-75
2023/04/22 01:07:23;;;;;;;;;;;;;;;12.46;74.38;100862.50;5003073;28;1960;-75
2023/04/22 01:09:49;;;;;;;;;;;;;;;12.45;74.47;100858.16;5002230;28;2045;-75
2023/04/22 01:12:16;;;;;;;;;;;;;;;12.43;74.39;100862.97;5002464;28;2195;-74
2023/04/22 01:14:43;;;;;;;;;;;;;;;12.41;74.27;100854.25;5001398;28;2018;-74
2023/04/22 01:17:10;;;;;;;;;;;;;;;12.41;74.43;100865.06;5001321;28;2040;-75
2023/04/22 01:19:37;;;;;;;;;;;;;;;12.40;74.39;100866.09;5004151;28;1400;-74
2023/04/22 01:22:03;;;;;;;;;;;;;;;12.38;74.53;100860.09;5001952;28;2259;-76
2023/04/22 01:24:30;;;;;;;;;;;;;;;12.38;74.26;100865.50;5002765;28;1997;-74
2023/04/22 01:26:57;;;;;;;;;;;;;;;12.35;74.28;100855.97;5003046;28;1443;-74
2023/04/22 01:29:23;;;;;;;;;;;;;;;12.34;74.31;100854.31;5008563;28;2088;-74
2023/04/22 01:31:50;;;;;;;;;;;;;;;12.32;74.19;100842.09;5003097;28;1960;-76
2023/04/22 01:34:16;;;;;;;;;;;;;;;12.32;74.26;100847.50;4999358;28;4965;-73
2023/04/22 01:36:43;;;;;;;;;;;;;;;12.30;74.18;100847.72;5003659;28;1910;-73
2023/04/22 01:39:09;;;;;;;;;;;;;;;12.28;74.35;100845.25;5002248;28;3936;-74
2023/04/22 01:41:36;;;;;;;;;;;;;;;12.27;74.28;100842.78;5001945;28;2000;-74
2023/04/22 01:44:03;;;;;;;;;;;;;;;12.25;74.04;100834.88;4998780;28;1933;-74
2023/04/22 01:46:29;;;;;;;;;;;;;;;12.24;74.13;100838.66;5002077;28;2015;-73
2023/04/22 01:48:56;;;;;;;;;;;;;;;12.23;74.19;100839.69;5003266;28;1016;-73
2023/04/22 01:51:22;;;;;;;;;;;;;;;12.22;74.06;100839.91;5003142;28;4003;-75
2023/04/22 01:53:49;;;;;;;;;;;;;;;12.21;74.06;100841.78;5002049;28;2098;-75
2023/04/22 01:56:15;;;;;;;;;;;;;;;12.20;74.20;100842.00;5001017;28;1989;-75
2023/04/22 01:58:42;;;;;;;;;;;;;;;12.18;74.15;100836.03;5002987;28;1052;-75
2023/04/22 02:01:08;;;;;;;;;;;;;;;12.16;74.20;100832.72;5002895;28;2169;-76
2023/04/22 02:03:35;;;;;;;;;;;;;;;12.15;74.13;100821.09;5002644;28;2058;-75
2023/04/22 02:06:02;;;;;;;;;;;;;;;12.14;74.01;100824.00;5003370;28;1560;-75
2023/04/22 02:08:28;;;;;;;;;;;;;;;12.12;73.95;100823.38;5002109;28;2159;-74
2023/04/22 02:10:55;;;;;;;;;;;;;;;12.10;74.01;100823.63;5000751;28;2070;-74
2023/04/22 02:13:21;;;;;;;;;;;;;;;12.09;73.92;100818.44;5001557;28;2056;-75
2023/04/22 02:15:48;;;;;;;;;;;;;;;12.08;74.04;100814.09;5002055;28;2046;-75
2023/04/22 02:18:16;;;;;;;;;;;;;;;12.06;73.98;100825.13;5001071;28;1977;-76
2023/04/22 02:20:43;;;;;;;;;;;;;;;12.05;73.93;100823.47;5003462;28;970;-76
2023/04/22 02:23:10;;;;;;;;;;;;;;;12.03;73.76;100815.59;5002680;28;2048;-75
2023/04/22 02:25:36;;;;;;;;;;;;;;;12.01;73.90;100809.59;5006700;28;1511;-75
2023/04/22 02:28:03;;;;;;;;;;;;;;;12.00;73.81;100807.09;5006723;28;1947;-75
2023/04/22 02:30:30;;;;;;;;;;;;;;;11.99;73.65;100802.75;5003166;28;2099;-75
2023/04/22 02:32:56;;;;;;;;;;;;;;;11.98;73.67;100798.41;5003826;28;2144;-75
2023/04/22 02:35:23;;;;;;;;;;;;;;;11.97;73.80;100799.44;5006255;28;1907;-74
2023/04/22 02:37:49;;;;;;;;;;;;;;;11.95;73.63;100794.28;5006315;28;1272;-76
2023/04/22 02:40:16;;;;;;;;;;;;;;;11.93;73.59;100798.25;5002350;28;5545;-74
2023/04/22 02:42:42;;;;;;;;;;;;;;;11.92;73.79;100794.75;5005063;28;1952;-73
2023/04/22 02:45:09;;;;;;;;;;;;;;;11.91;73.63;100789.53;5003897;28;3907;-74
2023/04/22 02:47:36;;;;;;;;;;;;;;;11.89;73.52;100787.09;5021495;28;1008;-75
2023/04/22 02:50:02;;;;;;;;;;;;;;;11.87;73.48;100785.66;5004890;28;1969;-75
2023/04/22 02:52:29;;;;;;;;;;;;;;;11.86;73.46;100782.13;5006051;28;1696;-75
2023/04/22 02:54:55;;;;;;;;;;;;;;;11.84;73.42;100784.19;5004814;28;2098;-74
2023/04/22 02:57:22;;;;;;;;;;;;;;;11.83;73.56;100779.84;5004317;28;3942;-75
2023/04/22 02:59:48;;;;;;;;;;;;;;;11.82;73.51;100778.19;5003104;28;2033;-75
2023/04/22 03:02:15;;;;;;;;;;;;;;;11.81;73.54;100773.84;5002806;28;1932;-75
2023/04/22 03:04:41;;;;;;;;;;;;;;;11.78;73.49;100769.72;5004424;28;1537;-75
2023/04/22 03:07:08;;;;;;;;;;;;;;;11.77;73.49;100768.06;5005505;28;1487;-74
2023/04/22 03:09:34;;;;;;;;;;;;;;;11.75;73.34;100770.16;5002207;28;2139;-75
2023/04/22 03:12:01;;;;;;;;;;;;;;;11.74;73.32;100765.81;5004730;28;1973;-74
2023/04/22 03:14:27;;;;;;;;;;;;;;;11.73;73.56;100772.25;5005572;28;1510;-76
2023/04/22 03:16:54;;;;;;;;;;;;;;;11.71;73.27;100768.97;5002638;28;2009;-75
2023/04/22 03:19:21;;;;;;;;;;;;;;;11.70;73.26;100761.88;5004430;28;2152;-75
2023/04/22 03:21:47;;;;;;;;;;;;;;;11.69;73.38;100754.84;5005547;28;1098;-74
2023/04/22 03:24:14;;;;;;;;;;;;;;;11.68;73.31;100757.78;5002801;28;2014;-73
2023/04/22 03:26:40;;;;;;;;;;;;;;;11.67;73.12;100761.50;5001331;28;2336;-74
2023/04/22 03:29:07;;;;;;;;;;;;;;;11.67;72.82;100759.63;5003193;28;2224;-74
2023/04/22 03:31:34;;;;;;;;;;;;;;;11.66;73.14;100755.31;5002637;28;1993;-77
2023/04/22 03:34:00;;;;;;;;;;;;;;;11.63;73.01;100747.66;5002559;28;1513;-73
2023/04/22 03:36:27;;;;;;;;;;;;;;;11.66;73.02;100749.09;5005876;28;1975;-73
2023/04/22 03:38:53;;;;;;;;;;;;;;;11.62;73.42;100750.56;5001222;28;4976;-76
2023/04/22 03:41:20;;;;;;;;;;;;;;;11.59;73.03;100749.97;5003102;28;5183;-76
2023/04/22 03:43:47;;;;;;;;;;;;;;;11.57;72.94;100735.88;5004508;28;1522;-73
2023/04/22 03:46:13;;;;;;;;;;;;;;;11.57;72.92;100733.19;5000913;28;4057;-74
2023/04/22 03:48:40;;;;;;;;;;;;;;;11.57;72.99;100735.88;5004331;28;1966;-73
2023/04/22 03:51:06;;;;;;;;;;;;;;;11.66;72.65;100728.31;5005856;28;1525;-74
2023/04/22 03:53:33;;;;;;;;;;;;;;;11.64;72.32;100730.41;5005069;28;1546;-76
2023/04/22 03:55:59;;;;;;;;;;;;;;;11.67;72.35;100724.56;5002636;28;2683;-76
2023/04/22 03:58:26;;;;;;;;;;;;;;;11.66;72.16;100724.81;5002926;28;4003;-74
2023/04/22 04:00:52;;;;;;;;;;;;;;;11.69;71.99;100711.69;5004526;28;1676;-74
2023/04/22 04:03:19;;;;;;;;;;;;;;;11.70;72.02;100710.63;5003243;28;1556;-74
2023/04/22 04:05:46;;;;;;;;;;;;;;;11.77;71.61;100708.72;5005111;28;1086;-74
2023/04/22 04:08:12;;;;;;;;;;;;;;;11.83;71.21;100710.50;5003773;28;1923;-73
2023/04/22 04:10:40;;;;;;;;;;;;;;;12.11;70.08;100711.88;5001610;28;2101;-74
2023/04/22 04:13:07;;;;;;;;;;;;;;;12.13;69.99;100698.16;5003702;28;2000;-74
2023/04/22 04:15:34;;;;;;;;;;;;;;;11.84;70.85;100697.84;5004994;28;1501;-74
2023/04/22 04:18:01;;;;;;;;;;;;;;;12.05;70.34;100694.69;5003194;28;1954;-74
2023/04/22 04:20:28;;;;;;;;;;;;;;;12.22;69.45;100703.03;5004865;28;2202;-74
2023/04/22 04:22:55;;;;;;;;;;;;;;;12.08;69.71;100706.13;5004394;28;1537;-74
2023/04/22 04:25:22;;;;;;;;;;;;;;;12.19;69.22;100699.97;5003232;28;2223;-75
2023/04/22 04:27:49;;;;;;;;;;;;;;;12.20;69.34;100696.19;5000074;28;2292;-74
2023/04/22 04:30:15;;;;;;;;;;;;;;;12.13;69.26;100693.59;5002591;28;1988;-74
2023/04/22 04:32:44;;;;;;;;;;;;;;;12.03;69.75;100691.44;5001579;28;1523;-74
2023/04/22 04:35:13;;;;;;;;;;;;;;;12.08;69.54;100693.44;5002762;28;2087;-75
2023/04/22 04:37:39;;;;;;;;;;;;;;;11.98;69.68;100687.75;5002832;28;1977;-72
2023/04/22 04:40:06;;;;;;;;;;;;;;;12.07;69.37;100691.78;5003179;28;2059;-74
2023/04/22 04:42:33;;;;;;;;;;;;;;;11.98;69.54;100688.56;4997856;28;1529;-77
2023/04/22 04:44:59;;;;;;;;;;;;;;;12.04;69.43;100682.28;5001435;28;1965;-75
2023/04/22 04:47:27;;;;;;;;;;;;;;;11.86;69.91;100679.59;4998833;28;5003;-74
2023/04/22 04:49:53;;;;;;;;;;;;;;;11.91;69.76;100682.44;5003301;28;5147;-74
2023/04/22 04:52:20;;;;;;;;;;;;;;;11.91;69.46;100679.75;5001621;28;1636;-73
2023/04/22 04:54:46;;;;;;;;;;;;;;;11.97;69.32;100678.00;5001940;28;4815;-73
2023/04/22 04:57:13;;;;;;;;;;;;;;;11.94;69.36;100682.00;5004398;28;1914;-74
2023/04/22 04:59:39;;;;;;;;;;;;;;;11.88;69.49;100682.88;5001542;28;1888;-76
2023/04/22 05:02:06;;;;;;;;;;;;;;;11.90;69.41;100675.38;5001449;28;1542;-74
2023/04/22 05:04:32;;;;;;;;;;;;;;;11.86;69.53;100676.06;5003321;28;1997;-75
2023/04/22 05:06:59;;;;;;;;;;;;;;;11.80;69.40;100683.16;5002895;28;3329;-74
2023/04/22 05:09:26;;;;;;;;;;;;;;;11.88;69.49;100674.75;5003395;28;1914;-74
2023/04/22 05:11:52;;;;;;;;;;;;;;;11.78;69.52;100679.84;5002043;28;2055;-75
2023/04/22 05:14:19;;;;;;;;;;;;;;;11.88;69.06;100668.53;5001679;28;2065;-74
2023/04/22 05:16:45;;;;;;;;;;;;;;;11.73;69.68;100671.59;5000607;28;1914;-74
2023/04/22 05:19:12;;;;;;;;;;;;;;;11.66;70.01;100677.06;5000855;28;2012;-74
2023/04/22 05:21:39;;;;;;;;;;;;;;;11.64;69.98;100670.25;5003647;28;2170;-75
2023/04/22 05:24:05;;;;;;;;;;;;;;;11.62;69.92;100662.38;5003174;28;1985;-75
2023/04/22 05:26:32;;;;;;;;;;;;;;;11.35;71.05;100667.19;5001014;28;1916;-75
2023/04/22 05:28:58;;;;;;;;;;;;;;;11.41;70.80;100665.47;5002305;28;2037;-74
2023/04/22 05:31:25;;;;;;;;;;;;;;;11.42;70.66;100654.50;5000432;28;2040;-75
2023/04/22 05:33:51;;;;;;;;;;;;;;;11.55;70.07;100665.13;5001700;28;1993;-74
2023/04/22 05:36:18;;;;;;;;;;;;;;;11.30;70.88;100654.41;5003291;28;2060;-74
2023/04/22 05:38:44;;;;;;;;;;;;;;;11.30;71.05;100654.41;5003566;28;1954;-74
2023/04/22 05:41:11;;;;;;;;;;;;;;;11.27;70.89;100654.03;5001921;28;2039;-74
2023/04/22 05:43:37;;;;;;;;;;;;;;;11.14;71.22;100644.16;5003610;28;1890;-74
2023/04/22 05:46:04;;;;;;;;;;;;;;;11.08;71.36;100648.56;4999764;28;2383;-75
2023/04/22 05:48:30;;;;;;;;;;;;;;;11.09;71.50;100644.84;5001438;28;1674;-74
2023/04/22 05:50:57;;;;;;;;;;;;;;;11.06;71.79;100637.19;5002676;28;1889;-74
2023/04/22 05:53:23;;;;;;;;;;;;;;;11.02;71.60;100635.97;4998536;28;2060;-74
2023/04/22 05:55:50;;;;;;;;;;;;;;;10.99;71.69;100630.22;5005592;28;2009;-74
2023/04/22 05:58:17;;;;;;;;;;;;;;;11.00;71.44;100632.69;5004918;28;5165;-75
2023/04/22 06:00:43;;;;;;;;;;;;;;;11.02;71.47;100627.88;5005393;28;5140;-75
2023/04/22 06:03:10;;;;;;;;;;;;;;;10.98;71.56;100621.31;5005599;28;3783;-75
2023/04/22 06:05:36;;;;;;;;;;;;;;;11.01;71.35;100620.03;5006576;28;2019;-74
2023/04/22 06:08:03;;;;;;;;;;;;;;;10.96;71.53;100615.28;5001635;28;2136;-75
2023/04/22 06:10:29;;;;;;;;;;;;;;;10.95;71.67;100618.22;5022311;28;2023;-76
2023/04/22 06:12:56;;;;;;;;;;;;;;;10.94;71.57;100621.94;5006134;28;1497;-75
2023/04/22 06:15:22;;;;;;;;;;;;;;;10.93;71.52;100621.13;5004773;28;4012;-75
2023/04/22 06:17:49;;;;;;;;;;;;;;;10.95;71.45;100620.94;5006720;28;1910;-76
2023/04/22 06:20:16;;;;;;;;;;;;;;;10.91;71.41;100617.81;5005175;28;2087;-75
2023/04/22 06:22:42;;;;;;;;;;;;;;;10.92;71.49;100616.78;5000454;28;1768;-75
2023/04/22 06:25:09;;;;;;;;;;;;;;;10.91;71.50;100612.44;5003329;28;2326;-75
2023/04/22 06:27:36;;;;;;;;;;;;;;;10.89;71.59;100604.59;5004894;28;2068;-74
2023/04/22 06:30:03;;;;;;;;;;;;;;;10.91;71.35;100610.59;5002080;28;2444;-75
2023/04/22 06:32:29;;;;;;;;;;;;;;;10.89;71.26;100603.75;4992313;28;2415;-76
2023/04/22 06:34:57;;;;;;;;;;;;;;;10.87;71.46;100603.16;4997342;28;2204;-75
2023/04/22 06:37:25;;;;;;;;;;;;;;;10.87;71.35;100600.47;4999005;28;2178;-76
2023/04/22 06:39:52;;;;;;;;;;;;;;;10.87;71.30;100601.28;4999879;28;1656;-75
2023/04/22 06:42:19;;;;;;;;;;;;;;;10.84;71.28;100593.63;4997375;28;2285;-75
2023/04/22 06:44:45;;;;;;;;;;;;;;;10.85;71.43;100597.16;4996505;28;2163;-75
2023/04/22 06:47:12;;;;;;;;;;;;;;;10.83;71.32;100589.31;4995961;28;2086;-75
2023/04/22 06:49:38;;;;;;;;;;;;;;;10.82;71.38;100582.25;4994303;28;2240;-76
2023/04/22 06:52:05;;;;;;;;;;;;;;;10.82;71.26;100576.03;4995930;28;2112;-75
2023/04/22 06:54:31;;;;;;;;;;;;;;;10.82;71.36;100571.47;5004388;28;2131;-75
2023/04/22 06:56:58;;;;;;;;;;;;;;;10.81;71.16;100563.63;5002910;28;2180;-74
2023/04/22 06:59:25;;;;;;;;;;;;;;;10.81;71.32;100560.94;4998329;28;5063;-75
2023/04/22 07:01:51;;;;;;;;;;;;;;;10.80;71.28;100557.41;4998022;28;4072;-74
2023/04/22 07:04:18;;;;;;;;;;;;;;;10.80;71.15;100559.28;4996033;28;2408;-74
2023/04/22 07:06:44;;;;;;;;;;;;;;;10.80;71.40;100556.59;4998546;28;3485;-74
2023/04/22 07:09:11;;;;;;;;;;;;;;;10.79;71.17;100554.94;5004152;28;1569;-75
2023/04/22 07:11:38;;;;;;;;;;;;;;;10.78;71.24;100556.81;4996497;28;2149;-75
2023/04/22 07:14:04;;;;;;;;;;;;;;;10.78;71.14;100555.97;4999985;28;1642;-75
2023/04/22 07:16:31;;;;;;;;;;;;;;;10.79;71.30;100554.94;5003269;28;1910;-75
2023/04/22 07:18:58;;;;;;;;;;;;;;;10.77;71.19;100547.09;4998628;28;3394;-77
2023/04/22 07:21:25;;;;;;;;;;;;;;;10.78;71.05;100546.03;4993353;28;2040;-76
2023/04/22 07:23:51;;;;;;;;;;;;;;;10.78;71.24;100551.41;5008982;28;1847;-75
2023/04/22 07:26:18;;;;;;;;;;;;;;;10.76;71.25;100542.72;4993437;28;1772;-74
2023/04/22 07:28:44;;;;;;;;;;;;;;;10.76;71.24;100542.72;4996381;28;2154;-75
2023/04/22 07:31:11;;;;;;;;;;;;;;;10.76;71.00;100540.03;4996527;28;2038;-75
2023/04/22 07:33:37;;;;;;;;;;;;;;;10.77;71.14;100532.78;5004061;28;2003;-74
2023/04/22 07:36:04;;;;;;;;;;;;;;;10.76;71.44;100520.34;5001240;28;2048;-75
2023/04/22 07:38:30;;;;;;;;;;;;;;;10.76;71.10;100514.97;5004517;28;2075;-73
2023/04/22 07:40:57;;;;;;;;;;;;;;;10.77;71.10;100519.31;5004726;28;3571;-75
2023/04/22 07:43:23;;;;;;;;;;;;;;;10.76;71.06;100523.88;5003605;28;1992;-74
2023/04/22 07:45:50;;;;;;;;;;;;;;;10.76;71.07;100515.78;5002678;28;1742;-76
2023/04/22 07:48:17;;;;;;;;;;;;;;;10.76;71.09;100514.97;5003226;28;2072;-75
2023/04/22 07:50:43;;;;;;;;;;;;;;;10.76;71.12;100518.47;5004441;28;2045;-76
2023/04/22 07:53:11;;;;;;;;;;;;;;;10.76;71.01;100506.88;5002774;28;1999;-75
2023/04/22 07:55:37;;;;;;;;;;;;;;;10.77;71.03;100522.03;5005276;28;1578;-75
2023/04/22 07:58:05;;;;;;;;;;;;;;;10.75;71.15;100503.38;5003697;28;2171;-77
2023/04/22 08:00:32;;;;;;;;;;;;;;;10.76;71.14;100502.31;5003883;28;1940;-75
2023/04/22 08:02:58;;;;;;;;;;;;;;;10.76;71.15;100505.00;5001382;28;5032;-74
2023/04/22 08:05:25;;;;;;;;;;;;;;;10.75;71.11;100506.06;4995898;28;4645;-78
2023/04/22 08:07:51;;;;;;;;;;;;;;;10.75;71.15;100505.25;4993243;28;3103;-75
2023/04/22 08:10:18;;;;;;;;;;;;;;;10.77;71.07;100506.69;4996015;28;1659;-75
2023/04/22 08:12:44;;;;;;;;;;;;;;;10.76;71.10;100501.50;4994178;28;1933;-75
2023/04/22 08:15:11;;;;;;;;;;;;;;;10.77;70.97;100492.38;4995522;28;1807;-75
2023/04/22 08:17:37;;;;;;;;;;;;;;;10.76;71.00;100486.16;5003374;28;1976;-75
2023/04/22 08:20:04;;;;;;;;;;;;;;;10.76;71.01;100483.44;5000286;28;5273;-74
2023/04/22 08:22:32;;;;;;;;;;;;;;;10.80;70.66;100486.56;5002935;28;2115;-75
2023/04/22 08:24:58;;;;;;;;;;;;;;;10.78;71.08;100485.94;5003201;28;2083;-74
2023/04/22 08:27:25;;;;;;;;;;;;;;;10.77;71.03;100478.91;5003754;28;1494;-75
2023/04/22 08:29:51;;;;;;;;;;;;;;;10.77;71.08;100470.84;5002552;28;2359;-75
2023/04/22 08:32:18;;;;;;;;;;;;;;;10.77;70.99;100471.66;4996350;28;2067;-75
2023/04/22 08:34:45;;;;;;;;;;;;;;;10.76;71.17;100463.78;5015392;28;1891;-78
2023/04/22 08:37:11;;;;;;;;;;;;;;;10.76;71.08;100467.28;5012239;28;1977;-76
2023/04/22 08:39:38;;;;;;;;;;;;;;;10.77;71.07;100455.50;5000127;28;2106;-76
2023/04/22 08:42:04;;;;;;;;;;;;;;;10.77;71.20;100458.19;5004589;28;1487;-76
2023/04/22 08:44:31;;;;;;;;;;;;;;;11.18;66.51;100448.59;4995499;28;2213;-79
2023/04/22 08:46:57;;;;;;;;;;;;;;;11.58;61.83;100443.50;4995575;28;1587;-78
2023/04/22 08:49:24;;;;;;;;;;;;;;;11.27;64.63;100441.84;4996996;28;1743;-77
2023/04/22 08:51:51;;;;;;;;;;;;;;;11.08;65.36;100435.63;4994557;28;2002;-78
2023/04/22 08:54:18;;;;;;;;;;;;;;;11.00;65.82;100432.41;4995197;28;2277;-78
2023/04/22 08:56:45;;;;;;;;;;;;;;;11.21;65.11;100434.66;4994579;28;1647;-78
2023/04/22 08:59:11;;;;;;;;;;;;;;;11.05;65.69;100436.09;4993990;28;1993;-77
2023/04/22 09:01:38;;;;;;;;;;;;;;;10.99;66.11;100434.31;4990665;28;2031;-77
2023/04/22 09:04:04;;;;;;;;;;;;;;;10.97;67.05;100430.19;4992343;28;5080;-78
2023/04/22 09:06:31;;;;;;;;;;;;;;;10.94;67.42;100436.84;4995853;28;4708;-80
2023/04/22 09:08:57;;;;;;;;;;;;;;;10.94;68.01;100427.94;4995254;28;3110;-78
2023/04/22 09:11:24;;;;;;;;;;;;;;;10.91;68.19;100429.22;4995661;28;2030;-78
2023/04/22 09:13:50;;;;;;;;;;;;;;;10.89;68.27;100424.06;4998776;28;1602;-78
2023/04/22 09:16:17;;;;;;;;;;;;;;;10.91;68.73;100421.13;5003430;28;2295;-77
2023/04/22 09:18:44;;;;;;;;;;;;;;;10.91;68.93;100424.66;5002091;28;1910;-78
2023/04/22 09:21:11;;;;;;;;;;;;;;;10.91;69.16;100419.28;5003242;28;3268;-78
2023/04/22 09:23:37;;;;;;;;;;;;;;;10.91;69.17;100410.34;5004766;28;2317;-78
2023/04/22 09:26:04;;;;;;;;;;;;;;;10.92;69.49;100417.41;5003554;28;2074;-78
2023/04/22 09:28:30;;;;;;;;;;;;;;;10.91;69.60;100411.19;5001557;28;2145;-78
2023/04/22 09:30:57;;;;;;;;;;;;;;;10.91;69.92;100408.50;5000783;28;2057;-78
2023/04/22 09:33:24;;;;;;;;;;;;;;;10.91;69.79;100403.09;5002827;28;1372;-79
2023/04/22 09:35:50;;;;;;;;;;;;;;;10.94;69.99;100409.06;5003782;28;1018;-79
2023/04/22 09:38:17;;;;;;;;;;;;;;;10.94;69.99;100406.38;5000754;28;2078;-78
2023/04/22 09:40:43;;;;;;;;;;;;;;;10.95;70.26;100406.16;4999183;28;1655;-78
2023/04/22 09:43:10;;;;;;;;;;;;;;;10.95;70.36;100402.66;5001618;28;1580;-78
2023/04/22 09:45:37;;;;;;;;;;;;;;;10.96;70.19;100410.50;5002538;28;1493;-78
2023/04/22 09:48:03;;;;;;;;;;;;;;;10.97;70.33;100405.94;5002477;28;2193;-79
2023/04/22 09:50:30;;;;;;;;;;;;;;;10.97;70.38;100405.94;5003995;28;1203;-78
2023/04/22 09:52:56;;;;;;;;;;;;;;;10.97;70.70;100406.78;5001379;28;1646;-78
2023/04/22 09:55:23;;;;;;;;;;;;;;;10.99;70.58;100398.44;4996125;28;1607;-80
2023/04/22 09:57:49;;;;;;;;;;;;;;;11.00;70.65;100405.47;4995870;28;2042;-80
2023/04/22 10:00:16;;;;;;;;;;;;;;;11.01;70.71;100396.38;5012138;28;1665;-79
2023/04/22 10:02:42;;;;;;;;;;;;;;;11.01;70.79;100390.97;4992937;28;2069;-78
2023/04/22 10:05:11;;;;;;;;;;;;;;;11.02;70.80;100385.34;4994912;28;1862;-80
2023/04/22 10:07:38;;;;;;;;;;;;;;;11.03;70.80;100391.53;4994903;28;1909;-78
2023/04/22 10:10:05;;;;;;;;;;;;;;;11.03;70.90;100386.16;4994870;28;4447;-77
2023/04/22 10:12:32;;;;;;;;;;;;;;;11.03;70.92;100389.69;5013058;28;1749;-79
2023/04/22 10:14:58;;;;;;;;;;;;;;;11.05;71.06;100395.66;4999644;28;1840;-79
2023/04/22 10:17:25;;;;;;;;;;;;;;;11.07;71.07;100387.38;5000626;28;4815;-78
2023/04/22 10:19:51;;;;;;;;;;;;;;;11.07;71.05;100373.91;5003891;28;2003;-78
2023/04/22 10:22:18;;;;;;;;;;;;;;;11.10;71.17;100378.81;5002995;28;1192;-78
2023/04/22 10:24:44;;;;;;;;;;;;;;;11.08;71.07;100373.66;5002191;28;1556;-77
2023/04/22 10:27:11;;;;;;;;;;;;;;;11.08;71.19;100376.34;5000471;28;2052;-78
2023/04/22 10:29:38;;;;;;;;;;;;;;;11.11;71.19;100372.38;5004643;28;1034;-78
2023/04/22 10:32:04;;;;;;;;;;;;;;;11.11;71.35;100369.69;5004125;28;2230;-77
2023/04/22 10:34:31;;;;;;;;;;;;;;;11.12;71.29;100366.78;5000868;28;2248;-79
2023/04/22 10:36:58;;;;;;;;;;;;;;;11.13;71.44;100367.59;5000947;28;2261;-77
2023/04/22 10:39:25;;;;;;;;;;;;;;;11.14;71.57;100361.97;5002134;28;2450;-77
2023/04/22 10:41:51;;;;;;;;;;;;;;;11.17;71.50;100362.56;4999525;28;2186;-78
2023/04/22 10:44:18;;;;;;;;;;;;;;;11.17;71.33;100363.38;5001108;28;2298;-79
2023/04/22 10:46:44;;;;;;;;;;;;;;;11.19;71.46;100361.28;5006448;28;1876;-79
2023/04/22 10:49:11;;;;;;;;;;;;;;;11.20;71.44;100359.41;4999054;28;2241;-77
2023/04/22 10:51:38;;;;;;;;;;;;;;;11.21;71.50;100347.59;5005480;28;2173;-79
2023/04/22 10:54:04;;;;;;;;;;;;;;;11.21;71.49;100347.59;5002553;28;2079;-77
2023/04/22 10:56:31;;;;;;;;;;;;;;;11.22;71.56;100343.84;4998864;28;2575;-78
2023/04/22 10:58:57;;;;;;;;;;;;;;;11.22;71.51;100343.84;5001970;28;2460;-78
2023/04/22 11:01:24;;;;;;;;;;;;;;;11.23;71.63;100340.91;5004157;28;2050;-78
2023/04/22 11:03:50;;;;;;;;;;;;;;;11.24;71.60;100333.66;5004571;28;2113;-77
2023/04/22 11:06:17;;;;;;;;;;;;;;;11.26;71.81;100326.97;5005770;28;1956;-79
2023/04/22 11:08:43;;;;;;;;;;;;;;;11.28;71.83;100329.44;5004432;28;1204;-78
2023/04/22 11:11:10;;;;;;;;;;;;;;;11.29;71.80;100323.81;5003853;28;2102;-77
2023/04/22 11:13:37;;;;;;;;;;;;;;;11.28;71.79;100315.97;5005155;28;4651;-78
2023/04/22 11:16:03;;;;;;;;;;;;;;;11.30;71.91;100322.78;5004609;28;4346;-79
2023/04/22 11:18:31;;;;;;;;;;;;;;;11.32;71.91;100309.88;5005715;28;1910;-78
2023/04/22 11:20:58;;;;;;;;;;;;;;;11.33;71.84;100316.09;5005846;28;4119;-76
2023/04/22 11:23:24;;;;;;;;;;;;;;;11.32;71.81;100311.75;5005678;28;999;-76
2023/04/22 11:25:51;;;;;;;;;;;;;;;11.32;71.82;100307.19;5004774;28;2022;-79
2023/04/22 11:28:17;;;;;;;;;;;;;;;11.35;71.79;100305.88;5002942;28;2137;-78
2023/04/22 11:30:44;;;;;;;;;;;;;;;11.37;71.87;100303.78;5004565;28;2039;-76
2023/04/22 11:33:10;;;;;;;;;;;;;;;11.39;72.02;100306.28;5004471;28;4178;-78
2023/04/22 11:35:38;;;;;;;;;;;;;;;11.40;72.14;100297.94;5006273;28;2078;-78
2023/04/22 11:38:05;;;;;;;;;;;;;;;11.41;72.11;100293.34;5004148;28;1910;-77
2023/04/22 11:40:31;;;;;;;;;;;;;;;11.42;72.19;100293.13;5005218;28;1814;-79
2023/04/22 11:42:58;;;;;;;;;;;;;;;11.42;72.14;100286.94;5003936;28;976;-78
2023/04/22 11:45:24;;;;;;;;;;;;;;;11.42;72.21;100287.75;5003710;28;2141;-79
2023/04/22 11:47:51;;;;;;;;;;;;;;;11.46;72.06;100285.41;5004682;28;2082;-78
2023/04/22 11:50:17;;;;;;;;;;;;;;;11.47;72.19;100281.63;5002057;28;1035;-77
2023/04/22 11:52:44;;;;;;;;;;;;;;;11.48;72.24;100277.91;5004780;28;1189;-80
2023/04/22 11:55:11;;;;;;;;;;;;;;;11.46;72.08;100282.69;4999604;28;1772;-75
2023/04/22 11:57:37;;;;;;;;;;;;;;;11.47;72.11;100274.41;4998787;28;1940;-76
2023/04/22 12:00:04;;;;;;;;;;;;;;;11.47;72.30;100269.00;4997476;28;2347;-79
2023/04/22 12:02:30;;;;;;;;;;;;;;;11.49;71.91;100274.97;4995588;28;1671;-76
2023/04/22 12:04:57;;;;;;;;;;;;;;;11.49;71.88;100268.75;4992803;28;2142;-77
2023/04/22 12:07:23;;;;;;;;;;;;;;;11.53;72.10;100270.78;5001489;28;1995;-78
2023/04/22 12:09:50;;;;;;;;;;;;;;;11.56;72.35;100261.41;5003027;28;2191;-76
2023/04/22 12:12:17;;;;;;;;;;;;;;;11.57;72.26;100266.53;5004666;28;2099;-79
2023/04/22 12:14:43;;;;;;;;;;;;;;;11.60;72.46;100273.34;5001781;28;5105;-78
2023/04/22 12:17:10;;;;;;;;;;;;;;;11.59;72.36;100264.44;5002598;28;5131;-78
2023/04/22 12:19:37;;;;;;;;;;;;;;;11.62;72.37;100255.06;5002419;28;2180;-79
2023/04/22 12:22:03;;;;;;;;;;;;;;;11.64;72.49;100271.81;5018675;28;4006;-77
2023/04/22 12:24:30;;;;;;;;;;;;;;;11.65;72.60;100259.16;5004651;28;1965;-76
2023/04/22 12:26:57;;;;;;;;;;;;;;;11.66;72.38;100266.19;5001757;28;2091;-77
2023/04/22 12:29:23;;;;;;;;;;;;;;;11.68;72.51;100248.72;5004122;28;2100;-80
2023/04/22 12:31:50;;;;;;;;;;;;;;;11.70;72.46;100249.28;5005058;28;944;-76
2023/04/22 12:34:17;;;;;;;;;;;;;;;11.72;72.52;100249.88;5002236;28;4186;-77
2023/04/22 12:36:43;;;;;;;;;;;;;;;11.74;72.75;100252.38;5007728;28;1990;-77
2023/04/22 12:39:11;;;;;;;;;;;;;;;11.76;72.53;100239.44;4993105;28;2173;-77
2023/04/22 12:41:37;;;;;;;;;;;;;;;11.76;72.45;100239.44;4993774;28;1664;-76
2023/04/22 12:44:04;;;;;;;;;;;;;;;11.76;72.40;100236.75;4999695;28;1643;-77